sensor_id;sensor_type;location;lat;lon;timestamp;pressure;altitude;pressure_sealevel;temperature;humidity
55490;BME280;44029;52.956;4.772;2023-04-10T00:00:23;68158.66;;;-147.32;100.00
55490;BME280;44029;52.956;4.772;2023-04-10T00:02:48;68158.66;;;-147.32;100.00
55490;BME280;44029;52.956;4.772;2023-04-10T00:05:14;68158.66;;;-147.32;100.00
55490;BME280;44029;52.956;4.772;2023-04-10T00:07:40;68158.66;;;-147.32;100.00
55490;BME280;44029;52.956;4.772;2023-04-10T00:10:06;68158.66;;;-147.32;100.00
55490;BME280;44029;52.956;4.772;2023-04-10T00:12:31;68158.66;;;-147.32;100.00
55490;BME280;44029;52.956;4.772;2023-04-10T00:14:57;68158.66;;;-147.32;100.00
55490;BME280;44029;52.956;4.772;2023-04-10T00:17:23;68158.66;;;-147.32;100.00
55490;BME280;44029;52.956;4.772;2023-04-10T00:19:48;68158.66;;;-147.32;100.00
55490;BME280;44029;52.956;4.772;2023-04-10T00:22:14;68158.66;;;-147.32;100.00
55490;BME280;44029;52.956;4.772;2023-04-10T00:24:39;68158.66;;;-147.32;100.00
55490;BME280;44029;52.956;4.772;2023-04-10T00:27:04;68158.66;;;-147.32;100.00
55490;BME280;44029;52.956;4.772;2023-04-10T00:29:30;68158.66;;;-147.32;100.00
55490;BME280;44029;52.956;4.772;2023-04-10T00:31:55;68158.66;;;-147.32;100.00
55490;BME280;44029;52.956;4.772;2023-04-10T00:34:20;68158.66;;;-147.32;100.00
55490;BME280;44029;52.956;4.772;2023-04-10T00:36:46;68158.66;;;-147.32;100.00
55490;BME280;44029;52.956;4.772;2023-04-10T00:39:12;68158.66;;;-147.32;100.00
55490;BME280;44029;52.956;4.772;2023-04-10T00:41:38;68158.66;;;-147.32;100.00
55490;BME280;44029;52.956;4.772;2023-04-10T00:44:03;68158.66;;;-147.32;100.00
55490;BME280;44029;52.956;4.772;2023-04-10T00:46:30;68158.66;;;-147.32;100.00
55490;BME280;44029;52.956;4.772;2023-04-10T00:48:55;68158.66;;;-147.32;100.00
55490;BME280;44029;52.956;4.772;2023-04-10T00:51:21;68158.66;;;-147.32;100.00
55490;BME280;44029;52.956;4.772;2023-04-10T00:53:51;68158.66;;;-147.32;100.00
55490;BME280;44029;52.956;4.772;2023-04-10T00:56:17;68158.66;;;-147.32;100.00
55490;BME280;44029;52.956;4.772;2023-04-10T00:58:43;68158.66;;;-147.32;100.00
55490;BME280;44029;52.956;4.772;2023-04-10T01:01:09;68158.66;;;-147.32;100.00
55490;BME280;44029;52.956;4.772;2023-04-10T01:03:35;68158.66;;;-147.32;100.00
55490;BME280;44029;52.956;4.772;2023-04-10T01:09:00;68158.66;;;-147.32;100.00
55490;BME280;44029;52.956;4.772;2023-04-10T01:11:52;68158.66;;;-147.32;100.00
55490;BME280;44029;52.956;4.772;2023-04-10T01:20:00;68158.66;;;-147.32;100.00
55490;BME280;44029;52.956;4.772;2023-04-10T01:23:08;68158.66;;;-147.32;100.00
55490;BME280;44029;52.956;4.772;2023-04-10T01:25:47;68158.66;;;-147.32;100.00
55490;BME280;44029;52.956;4.772;2023-04-10T01:30:56;68158.66;;;-147.32;100.00
55490;BME280;44029;52.956;4.772;2023-04-10T01:33:27;68158.66;;;-147.32;100.00
55490;BME280;44029;52.956;4.772;2023-04-10T01:35:55;68158.66;;;-147.32;100.00
55490;BME280;44029;52.956;4.772;2023-04-10T01:38:23;68158.66;;;-147.32;100.00
55490;BME280;44029;52.956;4.772;2023-04-10T01:40:52;68158.66;;;-147.32;100.00
55490;BME280;44029;52.956;4.772;2023-04-10T01:43:20;68158.66;;;-147.32;100.00
55490;BME280;44029;52.956;4.772;2023-04-10T01:45:47;68158.66;;;-147.32;100.00
55490;BME280;44029;52.956;4.772;2023-04-10T01:48:15;68158.66;;;-147.32;100.00
55490;BME280;44029;52.956;4.772;2023-04-10T01:50:44;68158.66;;;-147.32;100.00
55490;BME280;44029;52.956;4.772;2023-04-10T01:53:09;68158.66;;;-147.32;100.00
55490;BME280;44029;52.956;4.772;2023-04-10T01:55:35;68158.66;;;-147.32;100.00
55490;BME280;44029;52.956;4.772;2023-04-10T01:58:01;68158.66;;;-147.32;100.00
55490;BME280;44029;52.956;4.772;2023-04-10T02:00:27;68158.66;;;-147.32;100.00
55490;BME280;44029;52.956;4.772;2023-04-10T02:02:52;68158.66;;;-147.32;100.00
55490;BME280;44029;52.956;4.772;2023-04-10T02:05:18;68158.66;;;-147.32;100.00
55490;BME280;44029;52.956;4.772;2023-04-10T02:10:29;68158.66;;;-147.32;100.00
55490;BME280;44029;52.956;4.772;2023-04-10T02:13:04;68158.66;;;-147.32;100.00
55490;BME280;44029;52.956;4.772;2023-04-10T02:15:31;68158.66;;;-147.32;100.00
55490;BME280;44029;52.956;4.772;2023-04-10T02:18:01;68158.66;;;-147.32;100.00
55490;BME280;44029;52.956;4.772;2023-04-10T02:20:29;68158.66;;;-147.32;100.00
55490;BME280;44029;52.956;4.772;2023-04-10T02:22:57;68158.66;;;-147.32;100.00
55490;BME280;44029;52.956;4.772;2023-04-10T02:25:26;68158.66;;;-147.32;100.00
55490;BME280;44029;52.956;4.772;2023-04-10T02:27:52;68158.66;;;-147.32;100.00
55490;BME280;44029;52.956;4.772;2023-04-10T02:30:17;68158.66;;;-147.32;100.00
55490;BME280;44029;52.956;4.772;2023-04-10T02:32:42;68158.66;;;-147.32;100.00
55490;BME280;44029;52.956;4.772;2023-04-10T02:35:08;68158.66;;;-147.32;100.00
55490;BME280;44029;52.956;4.772;2023-04-10T02:37:33;68158.66;;;-147.32;100.00
55490;BME280;44029;52.956;4.772;2023-04-10T02:40:00;68158.66;;;-147.32;100.00
55490;BME280;44029;52.956;4.772;2023-04-10T02:42:25;68158.66;;;-147.32;100.00
55490;BME280;44029;52.956;4.772;2023-04-10T02:44:51;68158.66;;;-147.32;100.00
55490;BME280;44029;52.956;4.772;2023-04-10T02:47:16;68158.66;;;-147.32;100.00
55490;BME280;44029;52.956;4.772;2023-04-10T02:49:43;68158.66;;;-147.32;100.00
55490;BME280;44029;52.956;4.772;2023-04-10T02:52:08;68158.66;;;-147.32;100.00
55490;BME280;44029;52.956;4.772;2023-04-10T02:54:33;68158.66;;;-147.32;100.00
55490;BME280;44029;52.956;4.772;2023-04-10T02:56:58;68158.66;;;-147.32;100.00
55490;BME280;44029;52.956;4.772;2023-04-10T02:59:24;68158.66;;;-147.32;100.00
55490;BME280;44029;52.956;4.772;2023-04-10T03:01:50;68158.66;;;-147.32;100.00
55490;BME280;44029;52.956;4.772;2023-04-10T03:04:16;68158.66;;;-147.32;100.00
55490;BME280;44029;52.956;4.772;2023-04-10T03:06:42;68158.66;;;-147.32;100.00
55490;BME280;44029;52.956;4.772;2023-04-10T03:09:07;68158.66;;;-147.32;100.00
55490;BME280;44029;52.956;4.772;2023-04-10T03:11:32;68158.66;;;-147.32;100.00
55490;BME280;44029;52.956;4.772;2023-04-10T03:13:58;68158.66;;;-147.32;100.00
55490;BME280;44029;52.956;4.772;2023-04-10T03:16:23;68158.66;;;-147.32;100.00
55490;BME280;44029;52.956;4.772;2023-04-10T03:18:49;68158.66;;;-147.32;100.00
55490;BME280;44029;52.956;4.772;2023-04-10T03:21:14;68158.66;;;-147.32;100.00
55490;BME280;44029;52.956;4.772;2023-04-10T03:23:40;68158.66;;;-147.32;100.00
55490;BME280;44029;52.956;4.772;2023-04-10T03:26:05;68158.66;;;-147.32;100.00
55490;BME280;44029;52.956;4.772;2023-04-10T03:28:31;68158.66;;;-147.32;100.00
55490;BME280;44029;52.956;4.772;2023-04-10T03:30:57;68158.66;;;-147.32;100.00
55490;BME280;44029;52.956;4.772;2023-04-10T03:33:23;68158.66;;;-147.32;100.00
55490;BME280;44029;52.956;4.772;2023-04-10T03:35:48;68158.66;;;-147.32;100.00
55490;BME280;44029;52.956;4.772;2023-04-10T03:38:14;68158.66;;;-147.32;100.00
55490;BME280;44029;52.956;4.772;2023-04-10T03:40:39;68158.66;;;-147.32;100.00
55490;BME280;44029;52.956;4.772;2023-04-10T03:43:05;68158.66;;;-147.32;100.00
55490;BME280;44029;52.956;4.772;2023-04-10T03:45:30;68158.66;;;-147.32;100.00
55490;BME280;44029;52.956;4.772;2023-04-10T03:47:55;68158.66;;;-147.32;100.00
55490;BME280;44029;52.956;4.772;2023-04-10T03:50:21;68158.66;;;-147.32;100.00
55490;BME280;44029;52.956;4.772;2023-04-10T03:52:46;68158.66;;;-147.32;100.00
55490;BME280;44029;52.956;4.772;2023-04-10T03:55:14;68158.66;;;-147.32;100.00
55490;BME280;44029;52.956;4.772;2023-04-10T03:57:46;68158.66;;;-147.32;100.00
55490;BME280;44029;52.956;4.772;2023-04-10T04:00:15;68158.66;;;-147.32;100.00
55490;BME280;44029;52.956;4.772;2023-04-10T04:02:41;68158.66;;;-147.32;100.00
55490;BME280;44029;52.956;4.772;2023-04-10T04:05:06;68158.66;;;-147.32;100.00
55490;BME280;44029;52.956;4.772;2023-04-10T04:07:32;68158.66;;;-147.32;100.00
55490;BME280;44029;52.956;4.772;2023-04-10T04:09:58;68158.66;;;-147.32;100.00
55490;BME280;44029;52.956;4.772;2023-04-10T04:12:24;68158.66;;;-147.32;100.00
55490;BME280;44029;52.956;4.772;2023-04-10T04:14:49;68158.66;;;-147.32;100.00
55490;BME280;44029;52.956;4.772;2023-04-10T04:17:15;68158.66;;;-147.32;100.00
55490;BME280;44029;52.956;4.772;2023-04-10T04:19:40;68158.66;;;-147.32;100.00
55490;BME280;44029;52.956;4.772;2023-04-10T04:22:05;68158.66;;;-147.32;100.00
55490;BME280;44029;52.956;4.772;2023-04-10T04:24:31;68158.66;;;-147.32;100.00
55490;BME280;44029;52.956;4.772;2023-04-10T04:26:56;68158.66;;;-147.32;100.00
55490;BME280;44029;52.956;4.772;2023-04-10T04:29:22;68158.66;;;-147.32;100.00
55490;BME280;44029;52.956;4.772;2023-04-10T04:31:47;68158.66;;;-147.32;100.00
55490;BME280;44029;52.956;4.772;2023-04-10T04:34:13;68158.66;;;-147.32;100.00
55490;BME280;44029;52.956;4.772;2023-04-10T04:36:38;68158.66;;;-147.32;100.00
55490;BME280;44029;52.956;4.772;2023-04-10T04:39:03;68158.66;;;-147.32;100.00
55490;BME280;44029;52.956;4.772;2023-04-10T04:41:29;68158.66;;;-147.32;100.00
55490;BME280;44029;52.956;4.772;2023-04-10T04:43:57;68158.66;;;-147.32;100.00
55490;BME280;44029;52.956;4.772;2023-04-10T04:46:22;68158.66;;;-147.32;100.00
55490;BME280;44029;52.956;4.772;2023-04-10T04:48:47;68158.66;;;-147.32;100.00
55490;BME280;44029;52.956;4.772;2023-04-10T04:51:13;68158.66;;;-147.32;100.00
55490;BME280;44029;52.956;4.772;2023-04-10T04:53:38;68158.66;;;-147.32;100.00
55490;BME280;44029;52.956;4.772;2023-04-10T04:56:04;68158.66;;;-147.32;100.00
55490;BME280;44029;52.956;4.772;2023-04-10T04:58:29;68158.66;;;-147.32;100.00
55490;BME280;44029;52.956;4.772;2023-04-10T05:00:55;68158.66;;;-147.32;100.00
55490;BME280;44029;52.956;4.772;2023-04-10T05:03:20;68158.66;;;-147.32;100.00
55490;BME280;44029;52.956;4.772;2023-04-10T05:05:46;68158.66;;;-147.32;100.00
55490;BME280;44029;52.956;4.772;2023-04-10T05:08:12;68158.66;;;-147.32;100.00
55490;BME280;44029;52.956;4.772;2023-04-10T05:10:37;68158.66;;;-147.32;100.00
55490;BME280;44029;52.956;4.772;2023-04-10T05:13:02;68158.66;;;-147.32;100.00
55490;BME280;44029;52.956;4.772;2023-04-10T05:15:28;68158.66;;;-147.32;100.00
55490;BME280;44029;52.956;4.772;2023-04-10T05:17:53;68158.66;;;-147.32;100.00
55490;BME280;44029;52.956;4.772;2023-04-10T05:20:18;68158.66;;;-147.32;100.00
55490;BME280;44029;52.956;4.772;2023-04-10T05:22:46;68158.66;;;-147.32;100.00
55490;BME280;44029;52.956;4.772;2023-04-10T05:25:11;68158.66;;;-147.32;100.00
55490;BME280;44029;52.956;4.772;2023-04-10T05:27:36;68158.66;;;-147.32;100.00
55490;BME280;44029;52.956;4.772;2023-04-10T05:30:02;68158.66;;;-147.32;100.00
55490;BME280;44029;52.956;4.772;2023-04-10T05:32:28;68158.66;;;-147.32;100.00
55490;BME280;44029;52.956;4.772;2023-04-10T05:34:53;68158.66;;;-147.32;100.00
55490;BME280;44029;52.956;4.772;2023-04-10T05:37:19;68158.66;;;-147.32;100.00
55490;BME280;44029;52.956;4.772;2023-04-10T05:39:44;68158.66;;;-147.32;100.00
55490;BME280;44029;52.956;4.772;2023-04-10T05:42:09;68158.66;;;-147.32;100.00
55490;BME280;44029;52.956;4.772;2023-04-10T05:44:35;68158.66;;;-147.32;100.00
55490;BME280;44029;52.956;4.772;2023-04-10T05:47:01;68158.66;;;-147.32;100.00
55490;BME280;44029;52.956;4.772;2023-04-10T05:49:26;68158.66;;;-147.32;100.00
55490;BME280;44029;52.956;4.772;2023-04-10T05:51:51;68158.66;;;-147.32;100.00
55490;BME280;44029;52.956;4.772;2023-04-10T05:54:17;68158.66;;;-147.32;100.00
55490;BME280;44029;52.956;4.772;2023-04-10T05:56:43;68158.66;;;-147.32;100.00
55490;BME280;44029;52.956;4.772;2023-04-10T05:59:08;68158.66;;;-147.32;100.00
55490;BME280;44029;52.956;4.772;2023-04-10T06:01:33;68158.66;;;-147.32;100.00
55490;BME280;44029;52.956;4.772;2023-04-10T06:03:59;68158.66;;;-147.32;100.00
55490;BME280;44029;52.956;4.772;2023-04-10T06:06:24;68158.66;;;-147.32;100.00
55490;BME280;44029;52.956;4.772;2023-04-10T06:08:51;68158.66;;;-147.32;100.00
55490;BME280;44029;52.956;4.772;2023-04-10T06:11:16;68158.66;;;-147.32;100.00
55490;BME280;44029;52.956;4.772;2023-04-10T06:13:41;68158.66;;;-147.32;100.00
55490;BME280;44029;52.956;4.772;2023-04-10T06:16:07;68158.66;;;-147.32;100.00
55490;BME280;44029;52.956;4.772;2023-04-10T06:18:33;68158.66;;;-147.32;100.00
55490;BME280;44029;52.956;4.772;2023-04-10T06:20:58;68158.66;;;-147.32;100.00
55490;BME280;44029;52.956;4.772;2023-04-10T06:23:29;68158.66;;;-147.32;100.00
55490;BME280;44029;52.956;4.772;2023-04-10T06:25:55;68158.66;;;-147.32;100.00
55490;BME280;44029;52.956;4.772;2023-04-10T06:28:20;68158.66;;;-147.32;100.00
55490;BME280;44029;52.956;4.772;2023-04-10T06:30:45;68158.66;;;-147.32;100.00
55490;BME280;44029;52.956;4.772;2023-04-10T06:33:11;68158.66;;;-147.32;100.00
55490;BME280;44029;52.956;4.772;2023-04-10T06:35:36;68158.66;;;-147.32;100.00
55490;BME280;44029;52.956;4.772;2023-04-10T06:38:02;68158.66;;;-147.32;100.00
55490;BME280;44029;52.956;4.772;2023-04-10T06:40:27;68158.66;;;-147.32;100.00
55490;BME280;44029;52.956;4.772;2023-04-10T06:42:54;68158.66;;;-147.32;100.00
55490;BME280;44029;52.956;4.772;2023-04-10T06:45:19;68158.66;;;-147.32;100.00
55490;BME280;44029;52.956;4.772;2023-04-10T06:47:45;68158.66;;;-147.32;100.00
55490;BME280;44029;52.956;4.772;2023-04-10T06:50:10;68158.66;;;-147.32;100.00
55490;BME280;44029;52.956;4.772;2023-04-10T06:52:36;68158.66;;;-147.32;100.00
55490;BME280;44029;52.956;4.772;2023-04-10T06:55:01;68158.66;;;-147.32;100.00
55490;BME280;44029;52.956;4.772;2023-04-10T06:57:26;68158.66;;;-147.32;100.00
55490;BME280;44029;52.956;4.772;2023-04-10T06:59:53;68158.66;;;-147.32;100.00
55490;BME280;44029;52.956;4.772;2023-04-10T07:02:18;68158.66;;;-147.32;100.00
55490;BME280;44029;52.956;4.772;2023-04-10T07:04:43;68158.66;;;-147.32;100.00
55490;BME280;44029;52.956;4.772;2023-04-10T07:07:09;68158.66;;;-147.32;100.00
55490;BME280;44029;52.956;4.772;2023-04-10T07:09:36;68158.66;;;-147.32;100.00
55490;BME280;44029;52.956;4.772;2023-04-10T07:12:02;68158.66;;;-147.32;100.00
55490;BME280;44029;52.956;4.772;2023-04-10T07:14:27;68158.66;;;-147.32;100.00
55490;BME280;44029;52.956;4.772;2023-04-10T07:16:53;68158.66;;;-147.32;100.00
55490;BME280;44029;52.956;4.772;2023-04-10T07:19:19;68158.66;;;-147.32;100.00
55490;BME280;44029;52.956;4.772;2023-04-10T07:21:45;68158.66;;;-147.32;100.00
55490;BME280;44029;52.956;4.772;2023-04-10T07:24:15;68158.66;;;-147.32;100.00
55490;BME280;44029;52.956;4.772;2023-04-10T07:26:40;68158.66;;;-147.32;100.00
55490;BME280;44029;52.956;4.772;2023-04-10T07:29:05;68158.66;;;-147.32;100.00
55490;BME280;44029;52.956;4.772;2023-04-10T07:48:22;101644.94;;;13.29;100.00
55490;BME280;44029;52.956;4.772;2023-04-10T07:50:48;101639.31;;;13.07;100.00
55490;BME280;44029;52.956;4.772;2023-04-10T07:53:13;101641.19;;;13.06;100.00
55490;BME280;44029;52.956;4.772;2023-04-10T07:55:42;101630.63;;;13.44;100.00
55490;BME280;44029;52.956;4.772;2023-04-10T07:58:07;101626.09;;;13.54;100.00
55490;BME280;44029;52.956;4.772;2023-04-10T08:00:33;101625.25;;;13.71;100.00
55490;BME280;44029;52.956;4.772;2023-04-10T08:02:59;101625.25;;;13.71;100.00
55490;BME280;44029;52.956;4.772;2023-04-10T08:05:25;101618.22;;;13.80;100.00
55490;BME280;44029;52.956;4.772;2023-04-10T08:07:50;101618.91;;;13.70;100.00
55490;BME280;44029;52.956;4.772;2023-04-10T08:10:16;101610.66;;;13.53;100.00
55490;BME280;44029;52.956;4.772;2023-04-10T08:12:41;101608.59;;;13.61;100.00
55490;BME280;44029;52.956;4.772;2023-04-10T08:15:07;101602.66;;;13.52;100.00
55490;BME280;44029;52.956;4.772;2023-04-10T08:17:32;101602.22;;;13.60;100.00
55490;BME280;44029;52.956;4.772;2023-04-10T08:19:57;101594.16;;;13.53;100.00
55490;BME280;44029;52.956;4.772;2023-04-10T08:22:23;101593.22;;;13.65;100.00
55490;BME280;44029;52.956;4.772;2023-04-10T08:24:48;101591.28;;;13.65;100.00
55490;BME280;44029;52.956;4.772;2023-04-10T08:27:13;101592.03;;;13.78;100.00
55490;BME280;44029;52.956;4.772;2023-04-10T08:29:40;101593.38;;;13.75;100.00
55490;BME280;44029;52.956;4.772;2023-04-10T08:32:06;101579.13;;;14.00;100.00
55490;BME280;44029;52.956;4.772;2023-04-10T08:34:31;101588.78;;;14.03;100.00
55490;BME280;44029;52.956;4.772;2023-04-10T08:36:56;101580.50;;;14.20;100.00
55490;BME280;44029;52.956;4.772;2023-04-10T08:39:22;101578.66;;;14.30;100.00
55490;BME280;44029;52.956;4.772;2023-04-10T08:41:47;101572.56;;;14.06;100.00
55490;BME280;44029;52.956;4.772;2023-04-10T08:44:13;101573.53;;;13.95;100.00
55490;BME280;44029;52.956;4.772;2023-04-10T08:46:42;101560.66;;;14.23;100.00
55490;BME280;44029;52.956;4.772;2023-04-10T08:49:09;101562.25;;;13.97;100.00
55490;BME280;44029;52.956;4.772;2023-04-10T08:51:45;101557.78;;;14.35;100.00
55490;BME280;44029;52.956;4.772;2023-04-10T08:54:18;101559.50;;;14.41;100.00
55490;BME280;44029;52.956;4.772;2023-04-10T08:56:49;101543.38;;;14.27;100.00
55490;BME280;44029;52.956;4.772;2023-04-10T08:59:15;101538.94;;;14.26;100.00
55490;BME280;44029;52.956;4.772;2023-04-10T09:01:41;101534.13;;;14.39;100.00
55490;BME280;44029;52.956;4.772;2023-04-10T09:04:06;101539.50;;;14.06;100.00
55490;BME280;44029;52.956;4.772;2023-04-10T09:06:31;101535.75;;;14.35;100.00
55490;BME280;44029;52.956;4.772;2023-04-10T09:08:57;101525.91;;;14.44;100.00
55490;BME280;44029;52.956;4.772;2023-04-10T09:14:33;101525.03;;;14.60;100.00
55490;BME280;44029;52.956;4.772;2023-04-10T09:17:21;101519.72;;;14.86;100.00
55490;BME280;44029;52.956;4.772;2023-04-10T09:19:54;101514.97;;;14.54;100.00
55490;BME280;44029;52.956;4.772;2023-04-10T09:22:34;101516.34;;;15.11;100.00
55490;BME280;44029;52.956;4.772;2023-04-10T09:25:01;101502.44;;;15.01;100.00
55490;BME280;44029;52.956;4.772;2023-04-10T09:27:29;101487.72;;;15.22;100.00
55490;BME280;44029;52.956;4.772;2023-04-10T09:29:56;101489.31;;;15.13;100.00
55490;BME280;44029;52.956;4.772;2023-04-10T09:32:47;101485.06;;;15.38;100.00
55490;BME280;44029;52.956;4.772;2023-04-10T09:35:14;101480.16;;;15.50;100.00
55490;BME280;44029;52.956;4.772;2023-04-10T09:37:41;101465.53;;;15.50;100.00
55490;BME280;44029;52.956;4.772;2023-04-10T09:40:26;101460.44;;;15.84;100.00
55490;BME280;44029;52.956;4.772;2023-04-10T09:42:52;101464.69;;;15.44;100.00
55490;BME280;44029;52.956;4.772;2023-04-10T09:45:20;101449.13;;;15.75;100.00
55490;BME280;44029;52.956;4.772;2023-04-10T09:48:04;101449.19;;;15.43;100.00
55490;BME280;44029;52.956;4.772;2023-04-10T09:50:37;101439.84;;;15.49;100.00
55490;BME280;44029;52.956;4.772;2023-04-10T09:53:04;101440.69;;;15.50;100.00
55490;BME280;44029;52.956;4.772;2023-04-10T09:55:31;101434.28;;;15.39;100.00
55490;BME280;44029;52.956;4.772;2023-04-10T09:57:58;101432.13;;;15.51;100.00
55490;BME280;44029;52.956;4.772;2023-04-10T10:00:24;101436.97;;;15.28;100.00
55490;BME280;44029;52.956;4.772;2023-04-10T10:02:50;101424.91;;;15.40;100.00
55490;BME280;44029;52.956;4.772;2023-04-10T10:05:16;101434.41;;;15.64;100.00
55490;BME280;44029;52.956;4.772;2023-04-10T10:07:42;101422.56;;;15.74;100.00
55490;BME280;44029;52.956;4.772;2023-04-10T10:10:10;101411.91;;;16.14;100.00
55490;BME280;44029;52.956;4.772;2023-04-10T10:12:47;101413.50;;;15.89;100.00
55490;BME280;44029;52.956;4.772;2023-04-10T10:20:30;101398.09;;;16.39;100.00
55490;BME280;44029;52.956;4.772;2023-04-10T10:22:57;101384.00;;;16.41;100.00
55490;BME280;44029;52.956;4.772;2023-04-10T10:25:23;101379.59;;;16.35;100.00
55490;BME280;44029;52.956;4.772;2023-04-10T10:27:50;101370.13;;;15.90;100.00
55490;BME280;44029;52.956;4.772;2023-04-10T10:30:18;101350.16;;;15.67;100.00
55490;BME280;44029;52.956;4.772;2023-04-10T10:32:44;101332.31;;;16.06;100.00
55490;BME280;44029;52.956;4.772;2023-04-10T10:35:11;101348.84;;;15.80;100.00
55490;BME280;44029;52.956;4.772;2023-04-10T10:37:38;101341.13;;;16.08;100.00
55490;BME280;44029;52.956;4.772;2023-04-10T10:42:37;101328.97;;;16.55;100.00
55490;BME280;44029;52.956;4.772;2023-04-10T10:45:17;101325.97;;;16.31;100.00
55490;BME280;44029;52.956;4.772;2023-04-10T10:47:49;101314.84;;;16.56;100.00
55490;BME280;44029;52.956;4.772;2023-04-10T10:50:15;101322.63;;;16.44;100.00
55490;BME280;44029;52.956;4.772;2023-04-10T10:52:51;101314.34;;;16.44;100.00
55490;BME280;44029;52.956;4.772;2023-04-10T11:00:18;101304.03;;;16.86;100.00
55490;BME280;44029;52.956;4.772;2023-04-10T11:02:44;101303.41;;;17.09;100.00
55490;BME280;44029;52.956;4.772;2023-04-10T11:05:09;101295.25;;;17.33;100.00
55490;BME280;44029;52.956;4.772;2023-04-10T11:14:19;101284.19;;;17.78;100.00
55490;BME280;44029;52.956;4.772;2023-04-10T11:16:21;101267.13;;;17.61;100.00
55490;BME280;44029;52.956;4.772;2023-04-10T11:21:20;101257.22;;;17.94;99.39
55490;BME280;44029;52.956;4.772;2023-04-10T11:28:59;101245.03;;;17.50;100.00
55490;BME280;44029;52.956;4.772;2023-04-10T11:31:25;101231.00;;;17.42;100.00
55490;BME280;44029;52.956;4.772;2023-04-10T11:36:23;101209.56;;;17.92;100.00
55490;BME280;44029;52.956;4.772;2023-04-10T11:38:56;101202.16;;;18.11;100.00
55490;BME280;44029;52.956;4.772;2023-04-10T11:41:29;101195.84;;;17.71;100.00
55490;BME280;44029;52.956;4.772;2023-04-10T11:43:56;101188.88;;;17.39;100.00
55490;BME280;44029;52.956;4.772;2023-04-10T11:46:22;101183.09;;;17.70;100.00
55490;BME280;44029;52.956;4.772;2023-04-10T11:48:51;101183.78;;;17.57;100.00
55490;BME280;44029;52.956;4.772;2023-04-10T11:51:17;101175.53;;;17.07;100.00
55490;BME280;44029;52.956;4.772;2023-04-10T11:53:42;101169.84;;;16.83;100.00
55490;BME280;44029;52.956;4.772;2023-04-10T11:56:15;101167.00;;;16.93;100.00
55490;BME280;44029;52.956;4.772;2023-04-10T11:58:40;101159.75;;;16.48;100.00
55490;BME280;44029;52.956;4.772;2023-04-10T12:01:05;101157.19;;;16.61;100.00
55490;BME280;44029;52.956;4.772;2023-04-10T12:03:41;101149.56;;;16.98;100.00
55490;BME280;44029;52.956;4.772;2023-04-10T12:06:09;101153.56;;;16.66;100.00
55490;BME280;44029;52.956;4.772;2023-04-10T12:08:37;101146.81;;;16.93;100.00
55490;BME280;44029;52.956;4.772;2023-04-10T12:11:03;101147.00;;;16.47;100.00
55490;BME280;44029;52.956;4.772;2023-04-10T12:13:30;101137.91;;;16.36;100.00
55490;BME280;44029;52.956;4.772;2023-04-10T12:16:01;101144.16;;;16.67;100.00
55490;BME280;44029;52.956;4.772;2023-04-10T12:18:28;101147.53;;;16.54;100.00
55490;BME280;44029;52.956;4.772;2023-04-10T12:20:55;101150.63;;;16.42;100.00
55490;BME280;44029;52.956;4.772;2023-04-10T12:23:25;101141.66;;;16.71;100.00
55490;BME280;44029;52.956;4.772;2023-04-10T12:25:52;101139.75;;;16.61;100.00
55490;BME280;44029;52.956;4.772;2023-04-10T12:28:21;101136.38;;;16.74;100.00
55490;BME280;44029;52.956;4.772;2023-04-10T12:30:48;101141.13;;;16.63;100.00
55490;BME280;44029;52.956;4.772;2023-04-10T12:33:22;101135.38;;;16.55;100.00
55490;BME280;44029;52.956;4.772;2023-04-10T12:35:48;101138.88;;;16.71;100.00
55490;BME280;44029;52.956;4.772;2023-04-10T12:38:13;101132.06;;;16.53;100.00
55490;BME280;44029;52.956;4.772;2023-04-10T12:40:57;101117.94;;;17.09;100.00
55490;BME280;44029;52.956;4.772;2023-04-10T12:45:57;101108.28;;;16.52;100.00
55490;BME280;44029;52.956;4.772;2023-04-10T12:48:23;101109.19;;;16.27;100.00
55490;BME280;44029;52.956;4.772;2023-04-10T12:50:48;101102.13;;;15.95;100.00
55490;BME280;44029;52.956;4.772;2023-04-10T12:53:14;101096.78;;;16.19;100.00
55490;BME280;44029;52.956;4.772;2023-04-10T12:55:40;101095.22;;;15.87;100.00
55490;BME280;44029;52.956;4.772;2023-04-10T12:58:18;101089.56;;;16.23;100.00
55490;BME280;44029;52.956;4.772;2023-04-10T13:00:52;101091.06;;;15.95;100.00
55490;BME280;44029;52.956;4.772;2023-04-10T13:03:17;101080.28;;;15.98;100.00
55490;BME280;44029;52.956;4.772;2023-04-10T13:05:43;101081.94;;;15.94;100.00
55490;BME280;44029;52.956;4.772;2023-04-10T13:08:08;101088.88;;;15.92;100.00
55490;BME280;44029;52.956;4.772;2023-04-10T13:10:34;101082.50;;;15.86;100.00
55490;BME280;44029;52.956;4.772;2023-04-10T13:13:02;101064.28;;;15.90;100.00
55490;BME280;44029;52.956;4.772;2023-04-10T13:15:27;101067.34;;;15.78;100.00
55490;BME280;44029;52.956;4.772;2023-04-10T13:17:53;101072.59;;;15.70;100.00
55490;BME280;44029;52.956;4.772;2023-04-10T13:20:18;101062.09;;;15.66;100.00
55490;BME280;44029;52.956;4.772;2023-04-10T13:22:44;101057.97;;;15.54;100.00
55490;BME280;44029;52.956;4.772;2023-04-10T13:25:09;101053.00;;;15.35;100.00
55490;BME280;44029;52.956;4.772;2023-04-10T13:27:34;101045.56;;;15.36;100.00
55490;BME280;44029;52.956;4.772;2023-04-10T13:30:00;101038.41;;;15.09;100.00
55490;BME280;44029;52.956;4.772;2023-04-10T13:32:25;101030.09;;;15.24;100.00
55490;BME280;44029;52.956;4.772;2023-04-10T13:34:50;101012.72;;;15.29;100.00
55490;BME280;44029;52.956;4.772;2023-04-10T13:37:16;100998.63;;;15.36;100.00
55490;BME280;44029;52.956;4.772;2023-04-10T13:39:41;100983.69;;;15.47;100.00